createdAt,value
2022-09-07T00:02:26.356Z,7.32
2022-09-07T00:04:53.143Z,7.93
2022-09-07T00:07:19.894Z,8.23
2022-09-07T00:09:46.639Z,9.60
2022-09-07T00:12:13.335Z,8.88
2022-09-07T00:14:40.048Z,8.30
2022-09-07T00:17:06.744Z,7.65
2022-09-07T00:19:33.466Z,7.15
2022-09-07T00:22:00.163Z,6.70
2022-09-07T00:24:27.622Z,7.82
2022-09-07T00:26:57.441Z,7.88
2022-09-07T00:29:24.435Z,6.38
2022-09-07T00:31:51.258Z,7.07
2022-09-07T00:34:18.028Z,6.93
2022-09-07T00:36:44.933Z,6.85
2022-09-07T00:39:11.655Z,7.90
2022-09-07T00:41:38.484Z,7.53
2022-09-07T00:44:39.059Z,8.35
2022-09-07T00:47:30.878Z,7.20
2022-09-07T00:50:05.982Z,8.27
2022-09-07T00:52:35.048Z,8.88
2022-09-07T00:55:07.804Z,7.30
2022-09-07T00:57:35.791Z,7.80
2022-09-07T01:00:04.440Z,7.40
2022-09-07T01:02:31.411Z,7.30
2022-09-07T01:05:10.645Z,8.48
2022-09-07T01:07:37.384Z,8.55
2022-09-07T01:10:04.491Z,7.63
2022-09-07T01:12:31.436Z,10.32
2022-09-07T01:14:58.213Z,8.93
2022-09-07T01:17:24.867Z,9.20
2022-09-07T01:20:12.794Z,10.20
2022-09-07T01:22:57.661Z,7.18
2022-09-07T01:25:41.394Z,8.40
2022-09-07T01:28:21.230Z,8.30
2022-09-07T01:31:18.238Z,7.65
2022-09-07T01:34:09.095Z,7.43
2022-09-07T01:37:00.536Z,7.55
2022-09-07T01:40:09.414Z,7.75
2022-09-07T01:42:53.834Z,10.18
2022-09-07T01:45:24.456Z,7.13
2022-09-07T01:47:56.847Z,8.07
2022-09-07T01:50:51.810Z,8.60
2022-09-07T01:53:35.887Z,9.48
2022-09-07T01:56:12.794Z,7.03
2022-09-07T01:58:48.681Z,7.55
2022-09-07T02:01:26.684Z,7.60
2022-09-07T02:04:10.463Z,9.30
2022-09-07T02:07:00.947Z,7.88
2022-09-07T02:09:30.559Z,9.57
2022-09-07T02:12:00.467Z,7.68
2022-09-07T02:14:52.705Z,7.88
2022-09-07T02:17:29.516Z,7.35
2022-09-07T02:20:04.259Z,8.18
2022-09-07T02:22:35.847Z,8.13
2022-09-07T02:25:05.638Z,8.27
2022-09-07T02:27:45.515Z,8.20
2022-09-07T02:30:13.073Z,7.85
2022-09-07T02:32:39.906Z,8.48
2022-09-07T02:35:07.288Z,10.02
2022-09-07T02:37:35.017Z,7.13
2022-09-07T02:40:02.322Z,8.77
2022-09-07T02:42:34.440Z,9.88
2022-09-07T02:47:40.946Z,9.68
2022-09-07T02:50:46.245Z,9.63
2022-09-07T02:53:31.626Z,11.60
2022-09-07T02:56:30.698Z,9.27
2022-09-07T02:59:06.340Z,9.77
2022-09-07T03:02:04.500Z,10.90
2022-09-07T03:05:01.453Z,11.02
2022-09-07T03:07:44.207Z,11.30
2022-09-07T03:10:13.323Z,9.23
2022-09-07T03:12:45.970Z,12.00
2022-09-07T03:15:14.960Z,9.50
2022-09-07T03:17:42.492Z,8.32
2022-09-07T03:20:09.831Z,10.02
2022-09-07T03:22:36.781Z,7.20
2022-09-07T03:25:04.803Z,6.22
2022-09-07T03:27:32.591Z,10.07
2022-09-07T03:30:00.358Z,5.93
2022-09-07T03:32:32.597Z,6.85
2022-09-07T03:35:00.226Z,6.72
2022-09-07T03:37:27.252Z,8.25
2022-09-07T03:39:54.147Z,6.38
2022-09-07T03:42:21.648Z,6.63
2022-09-07T03:44:51.203Z,5.78
2022-09-07T03:47:18.100Z,6.88
2022-09-07T03:49:45.065Z,6.65
2022-09-07T03:52:12.121Z,5.35
2022-09-07T03:54:39.780Z,5.93
2022-09-07T03:57:07.014Z,6.43
2022-09-07T03:59:33.806Z,5.72
2022-09-07T04:02:00.932Z,7.07
2022-09-07T04:04:28.417Z,5.75
2022-09-07T04:06:55.237Z,7.18
2022-09-07T04:09:21.964Z,6.80
2022-09-07T04:11:48.715Z,7.57
2022-09-07T04:14:16.058Z,5.63
2022-09-07T04:16:44.754Z,6.00
2022-09-07T04:19:11.627Z,6.70
2022-09-07T04:21:38.387Z,7.18
2022-09-07T04:24:05.387Z,7.65
2022-09-07T04:26:34.133Z,6.72
2022-09-07T04:29:01.501Z,9.00
2022-09-07T04:31:28.384Z,6.32
2022-09-07T04:33:56.190Z,6.70
2022-09-07T04:36:24.792Z,6.70
2022-09-07T04:39:00.711Z,5.22
2022-09-07T04:41:28.763Z,7.18
2022-09-07T04:44:00.849Z,6.70
2022-09-07T04:48:59.064Z,5.40
2022-09-07T04:51:28.030Z,6.35
2022-09-07T04:53:57.919Z,6.25
2022-09-07T04:56:25.377Z,6.53
2022-09-07T04:58:52.589Z,6.10
2022-09-07T05:01:23.066Z,5.47
2022-09-07T05:03:50.596Z,6.38
2022-09-07T05:06:19.339Z,7.03
2022-09-07T05:08:51.044Z,6.22
2022-09-07T05:11:18.873Z,6.93
2022-09-07T05:13:45.989Z,5.60
2022-09-07T05:16:21.874Z,7.55
2022-09-07T05:18:54.084Z,6.38
2022-09-07T05:21:24.440Z,7.22
2022-09-07T05:23:52.874Z,7.43
2022-09-07T05:26:21.122Z,8.43
2022-09-07T05:28:48.207Z,6.95
2022-09-07T05:31:18.531Z,7.65
2022-09-07T05:36:34.282Z,7.40
2022-09-07T05:39:00.947Z,6.82
2022-09-07T05:41:28.359Z,7.30
2022-09-07T05:46:42.483Z,6.13
2022-09-07T05:49:10.194Z,7.22
2022-09-07T05:51:37.305Z,6.60
2022-09-07T05:54:04.495Z,6.95
2022-09-07T05:56:35.623Z,6.00
2022-09-07T05:59:02.372Z,7.25
2022-09-07T06:01:29.158Z,6.07
2022-09-07T06:03:57.157Z,6.90
2022-09-07T06:06:24.454Z,7.88
2022-09-07T06:08:54.106Z,5.90
2022-09-07T06:11:23.346Z,5.93
2022-09-07T06:13:50.858Z,7.15
2022-09-07T06:16:18.905Z,8.52
2022-09-07T06:18:48.524Z,7.28
2022-09-07T06:21:17.970Z,5.95
2022-09-07T06:23:45.728Z,6.75
2022-09-07T06:26:13.702Z,6.38
2022-09-07T06:28:42.638Z,5.40
2022-09-07T06:31:12.971Z,6.72
2022-09-07T06:33:41.260Z,7.97
2022-09-07T06:36:22.470Z,7.00
2022-09-07T06:38:50.591Z,7.05
2022-09-07T06:44:16.397Z,7.18
2022-09-07T06:49:29.840Z,8.57
2022-09-07T06:51:56.602Z,7.18
2022-09-07T06:57:10.119Z,9.75
2022-09-07T06:59:38.083Z,8.80
2022-09-07T07:02:06.309Z,7.95
2022-09-07T07:04:37.765Z,8.60
2022-09-07T07:07:10.668Z,10.23
2022-09-07T07:09:37.809Z,7.20
2022-09-07T07:12:04.639Z,5.38
2022-09-07T07:14:34.363Z,5.53
2022-09-07T07:17:02.333Z,7.80
2022-09-07T07:19:29.204Z,8.95
2022-09-07T07:22:29.555Z,7.68
2022-09-07T07:24:42.830Z,5.72
2022-09-07T07:27:09.610Z,5.53
2022-09-07T07:29:36.347Z,7.10
2022-09-07T07:32:04.243Z,10.63
2022-09-07T07:34:30.973Z,6.50
2022-09-07T07:36:57.743Z,7.45
2022-09-07T07:42:12.333Z,7.45
2022-09-07T07:44:39.028Z,6.32
2022-09-07T07:47:06.272Z,10.10
2022-09-07T07:49:33.145Z,5.78
2022-09-07T07:54:46.988Z,6.70
2022-09-07T07:57:26.838Z,5.25
2022-09-07T07:59:53.601Z,5.95
2022-09-07T08:02:20.486Z,5.68
2022-09-07T08:04:47.270Z,7.00
2022-09-07T08:07:14.302Z,8.35
2022-09-07T08:09:42.655Z,6.80
2022-09-07T08:12:11.384Z,7.10
2022-09-07T08:14:41.650Z,7.85
2022-09-07T08:17:13.137Z,7.45
2022-09-07T08:19:40.330Z,7.40
2022-09-07T08:22:08.681Z,7.38
2022-09-07T08:24:35.470Z,7.63
2022-09-07T08:27:02.286Z,9.07
2022-09-07T08:29:33.466Z,7.10
2022-09-07T08:32:02.222Z,8.38
2022-09-07T08:34:29.031Z,9.27
2022-09-07T08:36:55.659Z,7.60
2022-09-07T08:39:22.442Z,7.85
2022-09-07T08:41:55.923Z,7.32
2022-09-07T08:44:34.741Z,8.13
2022-09-07T08:47:01.444Z,7.18
2022-09-07T08:49:43.055Z,6.72
2022-09-07T08:52:23.173Z,6.97
2022-09-07T08:55:18.910Z,7.43
2022-09-07T08:57:52.752Z,8.50
2022-09-07T09:00:19.909Z,6.50
2022-09-07T09:03:28.602Z,7.97
2022-09-07T09:06:05.067Z,9.07
2022-09-07T09:09:16.561Z,6.68
2022-09-07T09:12:17.618Z,6.47
2022-09-07T09:14:55.674Z,6.72
2022-09-07T09:20:01.743Z,5.90
2022-09-07T09:22:28.836Z,5.90
2022-09-07T09:25:16.759Z,6.18
2022-09-07T09:27:43.571Z,6.85
2022-09-07T09:30:19.434Z,5.43
2022-09-07T09:32:48.787Z,5.75
2022-09-07T09:35:35.018Z,6.65
2022-09-07T09:38:04.933Z,6.85
2022-09-07T09:40:37.034Z,6.68
2022-09-07T09:43:06.756Z,6.32
2022-09-07T09:48:36.518Z,6.35
2022-09-07T09:54:05.828Z,5.50
2022-09-07T09:56:37.633Z,5.30
2022-09-07T10:05:41.720Z,5.60
2022-09-07T10:08:31.327Z,4.25
2022-09-07T10:11:07.967Z,4.15
2022-09-07T10:13:54.771Z,3.00
2022-09-07T10:16:40.263Z,4.90
2022-09-07T10:19:21.951Z,4.93
2022-09-07T10:21:59.255Z,3.30
2022-09-07T10:24:28.151Z,6.22
2022-09-07T10:26:54.843Z,4.22
2022-09-07T10:29:31.290Z,4.20
2022-09-07T10:32:19.837Z,3.90
2022-09-07T10:34:58.604Z,4.47
2022-09-07T10:37:39.752Z,5.85
2022-09-07T10:40:28.997Z,5.43
2022-09-07T10:46:08.123Z,4.95
2022-09-07T10:48:49.296Z,4.32
2022-09-07T10:51:43.838Z,3.53
2022-09-07T10:54:30.562Z,7.28
2022-09-07T10:57:23.259Z,5.75
2022-09-07T11:00:19.152Z,5.35
2022-09-07T11:03:29.800Z,3.60
2022-09-07T11:06:21.873Z,3.15
2022-09-07T11:09:18.299Z,5.10
2022-09-07T11:12:01.560Z,4.82
2022-09-07T11:14:32.757Z,4.82
2022-09-07T11:17:05.645Z,4.05
2022-09-07T11:19:42.371Z,5.32
2022-09-07T11:22:42.085Z,6.70
2022-09-07T11:25:30.283Z,3.35
2022-09-07T11:28:07.476Z,3.65
2022-09-07T11:30:40.229Z,5.30
2022-09-07T11:33:27.386Z,3.78
2022-09-07T11:36:04.599Z,5.30
2022-09-07T11:38:39.868Z,4.40
2022-09-07T11:41:28.338Z,3.20
2022-09-07T11:44:29.932Z,3.83
2022-09-07T11:47:15.956Z,4.68
2022-09-07T11:49:49.343Z,3.92
2022-09-07T11:52:36.124Z,4.22
2022-09-07T11:55:20.756Z,5.78
2022-09-07T11:58:29.207Z,4.50
2022-09-07T12:01:10.777Z,4.22
2022-09-07T12:04:01.810Z,3.53
2022-09-07T12:07:22.467Z,3.55
2022-09-07T12:10:34.285Z,4.05
2022-09-07T12:13:27.113Z,4.60
2022-09-07T12:16:21.615Z,4.88
2022-09-07T12:18:57.483Z,4.15
2022-09-07T12:21:44.185Z,2.95
2022-09-07T12:24:35.146Z,4.03
2022-09-07T12:27:19.324Z,2.97
2022-09-07T12:29:52.656Z,6.60
2022-09-07T12:33:04.437Z,2.22
2022-09-07T12:35:34.468Z,5.88
2022-09-07T12:38:03.328Z,5.32
2022-09-07T12:40:37.643Z,4.20
2022-09-07T12:43:17.715Z,4.28
2022-09-07T12:45:50.108Z,3.40
2022-09-07T12:48:17.467Z,3.60
2022-09-07T12:51:02.710Z,4.20
2022-09-07T12:53:44.065Z,3.30
2022-09-07T12:56:30.296Z,4.32
2022-09-07T12:59:20.347Z,4.53
2022-09-07T13:02:16.587Z,2.85
2022-09-07T13:04:58.665Z,3.67
2022-09-07T13:07:44.638Z,3.17
2022-09-07T13:10:27.308Z,2.85
2022-09-07T13:13:02.724Z,2.28
2022-09-07T13:15:41.523Z,2.25
2022-09-07T13:18:27.452Z,2.70
2022-09-07T13:21:09.967Z,4.30
2022-09-07T13:23:38.294Z,1.80
2022-09-07T13:26:08.983Z,3.25
2022-09-07T13:28:55.824Z,2.88
2022-09-07T13:31:50.212Z,2.78
2022-09-07T13:34:32.095Z,2.63
2022-09-07T13:37:00.398Z,4.80
2022-09-07T13:39:31.570Z,3.33
2022-09-07T13:42:00.891Z,3.47
2022-09-07T13:44:33.424Z,2.63
2022-09-07T13:47:15.345Z,5.90
2022-09-07T13:50:11.304Z,2.78
2022-09-07T13:53:23.189Z,2.10
2022-09-07T13:56:05.924Z,4.95
2022-09-07T13:58:41.893Z,4.10
2022-09-07T14:01:27.782Z,9.45
2022-09-07T14:04:09.244Z,7.00
2022-09-07T14:06:37.943Z,6.95
2022-09-07T14:09:07.018Z,4.70
2022-09-07T14:11:36.251Z,5.78
2022-09-07T14:14:16.428Z,5.72
2022-09-07T14:16:49.395Z,4.40
2022-09-07T14:19:33.289Z,3.67
2022-09-07T14:22:18.795Z,2.67
2022-09-07T14:24:54.956Z,3.50
2022-09-07T14:27:39.810Z,3.30
2022-09-07T14:30:31.475Z,3.78
2022-09-07T14:33:17.111Z,3.40
2022-09-07T14:35:44.189Z,4.72
2022-09-07T14:41:12.173Z,3.45
2022-09-07T14:43:51.272Z,2.70
2022-09-07T14:46:23.431Z,4.15
2022-09-07T14:48:55.590Z,4.72
2022-09-07T14:51:35.125Z,5.75
2022-09-07T14:54:06.022Z,3.70
2022-09-07T14:56:40.906Z,3.67
2022-09-07T14:59:28.705Z,4.03
2022-09-07T15:02:28.412Z,3.03
2022-09-07T15:05:29.906Z,4.68
2022-09-07T15:07:58.894Z,3.50
2022-09-07T15:10:41.342Z,2.63
2022-09-07T15:13:24.500Z,6.78
2022-09-07T15:15:59.440Z,2.88
2022-09-07T15:18:54.512Z,1.55
2022-09-07T15:21:32.788Z,3.85
2022-09-07T15:24:01.030Z,2.72
2022-09-07T15:29:25.379Z,7.00
2022-09-07T15:32:02.251Z,3.25
2022-09-07T15:34:32.358Z,2.78
2022-09-07T15:37:00.853Z,3.05
2022-09-07T15:39:29.962Z,2.97
2022-09-07T15:41:58.092Z,3.60
2022-09-07T15:44:28.117Z,5.55
2022-09-07T15:49:47.718Z,2.80
2022-09-07T15:52:17.373Z,3.53
2022-09-07T15:54:44.086Z,2.70
2022-09-07T15:59:57.760Z,2.10
2022-09-07T16:05:11.424Z,2.55
2022-09-07T16:10:26.271Z,3.33
2022-09-07T16:13:10.928Z,3.80
2022-09-07T16:15:52.149Z,3.45
2022-09-07T16:18:19.250Z,3.83
2022-09-07T16:20:46.320Z,4.05
2022-09-07T16:23:15.841Z,4.88
2022-09-07T16:25:54.086Z,4.72
2022-09-07T16:28:20.739Z,3.88
2022-09-07T16:30:48.158Z,4.97
2022-09-07T16:33:15.192Z,4.70
2022-09-07T16:35:41.908Z,3.85
2022-09-07T16:40:55.232Z,2.83
2022-09-07T16:43:21.881Z,3.63
2022-09-07T16:46:04.673Z,5.13
2022-09-07T16:48:34.197Z,4.15
2022-09-07T16:51:02.741Z,3.92
2022-09-07T16:53:31.258Z,6.75
2022-09-07T16:56:07.807Z,5.32
2022-09-07T16:58:37.669Z,3.85
2022-09-07T17:01:06.875Z,3.95
2022-09-07T17:03:34.175Z,5.90
2022-09-07T17:06:01.293Z,4.38
2022-09-07T17:08:28.386Z,3.55
2022-09-07T17:11:07.275Z,3.90
2022-09-07T17:13:35.816Z,3.55
2022-09-07T17:16:03.995Z,5.80
2022-09-07T17:21:19.721Z,5.22
2022-09-07T17:23:54.319Z,3.10
2022-09-07T17:26:22.493Z,3.55
2022-09-07T17:28:51.262Z,3.58
2022-09-07T17:34:14.734Z,3.83
2022-09-07T17:36:42.616Z,3.17
2022-09-07T17:39:18.528Z,2.70
2022-09-07T17:41:52.718Z,4.70
2022-09-07T17:44:20.139Z,4.07
2022-09-07T17:46:46.993Z,3.95
2022-09-07T17:49:16.175Z,4.75
2022-09-07T17:51:43.961Z,2.88
2022-09-07T17:54:14.318Z,2.90
2022-09-07T17:56:41.851Z,3.42
2022-09-07T18:01:56.607Z,2.53
2022-09-07T18:04:24.017Z,3.25
2022-09-07T18:06:51.211Z,4.80
2022-09-07T18:09:19.565Z,3.25
2022-09-07T18:11:48.000Z,2.83
2022-09-07T18:14:16.621Z,4.22
2022-09-07T18:16:44.981Z,3.92
2022-09-07T18:19:12.360Z,2.65
2022-09-07T18:21:41.764Z,3.00
2022-09-07T18:24:13.875Z,2.85
2022-09-07T18:26:41.056Z,4.28
2022-09-07T18:29:25.929Z,3.38
2022-09-07T18:31:55.406Z,3.40
2022-09-07T18:34:22.192Z,3.03
2022-09-07T18:36:52.135Z,3.20
2022-09-07T18:39:19.015Z,3.50
2022-09-07T18:41:45.848Z,2.95
2022-09-07T18:46:59.144Z,3.70
2022-09-07T18:49:25.814Z,4.75
2022-09-07T18:54:41.299Z,3.75
2022-09-07T18:57:08.235Z,2.88
2022-09-07T18:59:35.080Z,3.42
2022-09-07T19:02:05.002Z,3.25
2022-09-07T19:07:20.826Z,3.80
2022-09-07T19:09:48.155Z,2.55
2022-09-07T19:12:15.153Z,4.38
2022-09-07T19:14:42.224Z,4.47
2022-09-07T19:17:10.903Z,2.70
2022-09-07T19:19:38.873Z,2.28
2022-09-07T19:22:06.028Z,4.30
2022-09-07T19:24:33.179Z,2.60
2022-09-07T19:27:00.874Z,3.05
2022-09-07T19:29:28.042Z,3.65
2022-09-07T19:32:07.617Z,3.65
2022-09-07T19:34:42.175Z,3.95
2022-09-07T19:37:10.662Z,4.78
2022-09-07T19:39:37.520Z,3.67
2022-09-07T19:42:05.324Z,4.53
2022-09-07T19:44:32.336Z,4.97
2022-09-07T19:47:00.313Z,5.05
2022-09-07T19:49:27.860Z,4.25
2022-09-07T19:51:54.758Z,4.97
2022-09-07T19:54:21.524Z,3.53
2022-09-07T19:56:48.203Z,3.25
2022-09-07T19:59:14.903Z,4.25
2022-09-07T20:01:46.029Z,4.18
2022-09-07T20:04:19.572Z,3.70
2022-09-07T20:06:48.022Z,4.25
2022-09-07T20:09:14.735Z,4.20
2022-09-07T20:11:46.084Z,4.90
2022-09-07T20:16:41.566Z,4.32
2022-09-07T20:19:10.216Z,3.88
2022-09-07T20:21:36.958Z,3.80
2022-09-07T20:24:04.459Z,4.80
2022-09-07T20:26:32.451Z,3.67
2022-09-07T20:29:16.675Z,5.00
2022-09-07T20:31:46.858Z,4.25
2022-09-07T20:34:14.315Z,4.70
2022-09-07T20:36:41.167Z,3.03
2022-09-07T20:39:07.818Z,3.97
2022-09-07T20:41:35.331Z,3.80
2022-09-07T20:44:04.332Z,3.80
2022-09-07T20:46:31.740Z,3.50
2022-09-07T20:48:59.015Z,3.90
2022-09-07T20:51:26.042Z,3.70
2022-09-07T20:53:52.805Z,4.75
2022-09-07T20:56:22.350Z,3.63
2022-09-07T20:58:53.143Z,4.72
2022-09-07T21:01:21.139Z,5.45
2022-09-07T21:03:50.176Z,3.72
2022-09-07T21:06:18.327Z,4.03
2022-09-07T21:08:46.667Z,4.32
2022-09-07T21:11:22.730Z,5.40
2022-09-07T21:13:59.312Z,3.65
2022-09-07T21:16:26.559Z,3.15
2022-09-07T21:18:58.148Z,4.30
2022-09-07T21:21:27.107Z,3.58
2022-09-07T21:23:59.342Z,4.50
2022-09-07T21:26:30.107Z,3.50
2022-09-07T21:29:01.663Z,5.20
2022-09-07T21:31:29.996Z,5.78
2022-09-07T21:33:58.687Z,5.30
2022-09-07T21:36:25.615Z,3.63
2022-09-07T21:38:52.782Z,3.72
2022-09-07T21:41:20.973Z,5.90
2022-09-07T21:43:48.033Z,5.50
2022-09-07T21:46:17.486Z,3.63
2022-09-07T21:48:47.331Z,3.70
2022-09-07T21:51:15.003Z,6.00
2022-09-07T21:53:42.946Z,5.35
2022-09-07T21:56:12.333Z,4.75
2022-09-07T21:58:39.982Z,4.35
2022-09-07T22:01:17.910Z,6.03
2022-09-07T22:03:46.276Z,5.00
2022-09-07T22:06:14.299Z,3.25
2022-09-07T22:08:42.057Z,4.70
2022-09-07T22:11:11.723Z,3.92
2022-09-07T22:13:38.915Z,4.47
2022-09-07T22:16:06.739Z,4.20
2022-09-07T22:18:33.643Z,2.72
2022-09-07T22:21:12.934Z,3.40
2022-09-07T22:23:42.572Z,3.42
2022-09-07T22:26:09.682Z,4.57
2022-09-07T22:28:37.167Z,3.92
2022-09-07T22:31:14.817Z,4.75
2022-09-07T22:33:42.360Z,4.60
2022-09-07T22:36:11.622Z,4.05
2022-09-07T22:38:38.619Z,3.80
2022-09-07T22:41:09.960Z,4.05
2022-09-07T22:43:37.027Z,4.38
2022-09-07T22:46:03.974Z,4.20
2022-09-07T22:48:31.148Z,4.40
2022-09-07T22:50:59.452Z,4.85
2022-09-07T22:53:27.835Z,3.83
2022-09-07T22:55:55.118Z,5.43
2022-09-07T22:58:23.767Z,5.55
2022-09-07T23:00:51.412Z,4.45
2022-09-07T23:03:18.402Z,4.55
2022-09-07T23:05:45.212Z,5.45
2022-09-07T23:08:11.883Z,5.38
2022-09-07T23:10:38.988Z,4.55
2022-09-07T23:13:05.961Z,4.78
2022-09-07T23:15:35.945Z,6.20
2022-09-07T23:18:02.650Z,4.88
2022-09-07T23:20:29.356Z,4.75
2022-09-07T23:22:56.082Z,3.97
2022-09-07T23:25:22.695Z,4.85
2022-09-07T23:27:49.408Z,4.22
2022-09-07T23:30:16.437Z,6.05
2022-09-07T23:32:43.138Z,5.50
2022-09-07T23:35:12.673Z,3.95
2022-09-07T23:37:42.802Z,7.68
2022-09-07T23:40:10.307Z,4.82
2022-09-07T23:42:37.056Z,3.42
2022-09-07T23:45:04.054Z,3.95
2022-09-07T23:47:30.721Z,5.45
2022-09-07T23:49:57.453Z,6.05
2022-09-07T23:52:24.182Z,7.25
2022-09-07T23:54:50.915Z,4.28
2022-09-07T23:57:17.621Z,4.97
2022-09-07T23:59:44.603Z,3.28
